sensor_id;sensor_type;location;lat;lon;timestamp;temperature;humidity
70830;SHT30;58451;51.550;7.208;2023-03-12T00:01:19;1.97;74.43
70830;SHT30;58451;51.550;7.208;2023-03-12T00:02:55;1.97;74.33
70830;SHT30;58451;51.550;7.208;2023-03-12T00:04:27;1.95;74.15
70830;SHT30;58451;51.550;7.208;2023-03-12T00:06:01;1.96;73.97
70830;SHT30;58451;51.550;7.208;2023-03-12T00:07:41;1.95;73.97
70830;SHT30;58451;51.550;7.208;2023-03-12T00:09:13;1.95;73.87
70830;SHT30;58451;51.550;7.208;2023-03-12T00:10:45;1.94;73.90
70830;SHT30;58451;51.550;7.208;2023-03-12T00:12:16;1.94;73.33
70830;SHT30;58451;51.550;7.208;2023-03-12T00:13:49;1.94;72.95
70830;SHT30;58451;51.550;7.208;2023-03-12T00:15:23;1.95;73.38
70830;SHT30;58451;51.550;7.208;2023-03-12T00:16:55;1.94;73.45
70830;SHT30;58451;51.550;7.208;2023-03-12T00:18:28;1.93;73.57
70830;SHT30;58451;51.550;7.208;2023-03-12T00:20:00;1.93;73.80
70830;SHT30;58451;51.550;7.208;2023-03-12T00:21:32;1.93;73.82
70830;SHT30;58451;51.550;7.208;2023-03-12T00:23:04;1.93;73.87
70830;SHT30;58451;51.550;7.208;2023-03-12T00:24:36;1.93;73.87
70830;SHT30;58451;51.550;7.208;2023-03-12T00:26:09;1.92;73.78
70830;SHT30;58451;51.550;7.208;2023-03-12T00:27:45;1.92;73.78
70830;SHT30;58451;51.550;7.208;2023-03-12T00:29:17;1.92;73.87
70830;SHT30;58451;51.550;7.208;2023-03-12T00:30:49;1.92;73.88
70830;SHT30;58451;51.550;7.208;2023-03-12T00:32:22;1.91;73.77
70830;SHT30;58451;51.550;7.208;2023-03-12T00:33:55;1.92;73.98
70830;SHT30;58451;51.550;7.208;2023-03-12T00:35:27;1.94;73.95
70830;SHT30;58451;51.550;7.208;2023-03-12T00:36:59;1.94;73.85
70830;SHT30;58451;51.550;7.208;2023-03-12T00:38:31;1.95;73.80
70830;SHT30;58451;51.550;7.208;2023-03-12T00:40:04;1.96;73.80
70830;SHT30;58451;51.550;7.208;2023-03-12T00:41:38;1.97;73.88
70830;SHT30;58451;51.550;7.208;2023-03-12T00:43:10;1.98;73.88
70830;SHT30;58451;51.550;7.208;2023-03-12T00:44:42;2.00;73.90
70830;SHT30;58451;51.550;7.208;2023-03-12T00:46:15;2.01;73.93
70830;SHT30;58451;51.550;7.208;2023-03-12T00:47:48;2.03;73.92
70830;SHT30;58451;51.550;7.208;2023-03-12T00:49:20;2.04;73.90
70830;SHT30;58451;51.550;7.208;2023-03-12T00:50:52;2.07;73.92
70830;SHT30;58451;51.550;7.208;2023-03-12T00:52:24;2.08;73.85
70830;SHT30;58451;51.550;7.208;2023-03-12T00:53:56;2.09;73.83
70830;SHT30;58451;51.550;7.208;2023-03-12T00:55:28;2.10;73.67
70830;SHT30;58451;51.550;7.208;2023-03-12T00:57:00;2.11;73.58
70830;SHT30;58451;51.550;7.208;2023-03-12T00:58:32;2.13;73.70
70830;SHT30;58451;51.550;7.208;2023-03-12T01:00:04;2.14;73.77
70830;SHT30;58451;51.550;7.208;2023-03-12T01:01:41;2.15;73.20
70830;SHT30;58451;51.550;7.208;2023-03-12T01:03:14;2.16;73.48
70830;SHT30;58451;51.550;7.208;2023-03-12T01:04:47;2.17;73.58
70830;SHT30;58451;51.550;7.208;2023-03-12T01:06:19;2.18;73.72
70830;SHT30;58451;51.550;7.208;2023-03-12T01:07:52;2.18;73.68
70830;SHT30;58451;51.550;7.208;2023-03-12T01:09:25;2.18;73.88
70830;SHT30;58451;51.550;7.208;2023-03-12T01:10:57;2.18;73.65
70830;SHT30;58451;51.550;7.208;2023-03-12T01:12:29;2.18;73.52
70830;SHT30;58451;51.550;7.208;2023-03-12T01:14:01;2.18;72.17
70830;SHT30;58451;51.550;7.208;2023-03-12T01:15:36;2.19;72.42
70830;SHT30;58451;51.550;7.208;2023-03-12T01:17:08;2.20;72.93
70830;SHT30;58451;51.550;7.208;2023-03-12T01:18:41;2.21;73.23
70830;SHT30;58451;51.550;7.208;2023-03-12T01:20:13;2.22;73.30
70830;SHT30;58451;51.550;7.208;2023-03-12T01:21:46;2.23;73.30
70830;SHT30;58451;51.550;7.208;2023-03-12T01:23:18;2.23;73.42
70830;SHT30;58451;51.550;7.208;2023-03-12T01:24:50;2.23;73.67
70830;SHT30;58451;51.550;7.208;2023-03-12T01:26:22;2.25;73.50
70830;SHT30;58451;51.550;7.208;2023-03-12T01:27:54;2.26;72.27
70830;SHT30;58451;51.550;7.208;2023-03-12T01:29:26;2.28;73.00
70830;SHT30;58451;51.550;7.208;2023-03-12T01:31:04;2.29;73.13
70830;SHT30;58451;51.550;7.208;2023-03-12T01:32:38;2.32;73.20
70830;SHT30;58451;51.550;7.208;2023-03-12T01:34:10;2.32;73.20
70830;SHT30;58451;51.550;7.208;2023-03-12T01:35:43;2.35;72.92
70830;SHT30;58451;51.550;7.208;2023-03-12T01:37:15;2.35;71.78
70830;SHT30;58451;51.550;7.208;2023-03-12T01:38:49;2.37;72.02
70830;SHT30;58451;51.550;7.208;2023-03-12T01:40:23;2.39;72.43
70830;SHT30;58451;51.550;7.208;2023-03-12T01:41:56;2.41;72.68
70830;SHT30;58451;51.550;7.208;2023-03-12T01:43:32;2.42;72.77
70830;SHT30;58451;51.550;7.208;2023-03-12T01:47:29;2.45;72.60
70830;SHT30;58451;51.550;7.208;2023-03-12T01:50:48;2.48;72.18
70830;SHT30;58451;51.550;7.208;2023-03-12T01:52:24;2.49;72.32
70830;SHT30;58451;51.550;7.208;2023-03-12T01:53:58;2.52;72.48
70830;SHT30;58451;51.550;7.208;2023-03-12T01:55:36;2.53;72.60
70830;SHT30;58451;51.550;7.208;2023-03-12T01:57:09;2.55;72.22
70830;SHT30;58451;51.550;7.208;2023-03-12T01:58:53;2.56;72.32
70830;SHT30;58451;51.550;7.208;2023-03-12T02:00:30;2.60;72.60
70830;SHT30;58451;51.550;7.208;2023-03-12T02:02:03;2.61;72.80
70830;SHT30;58451;51.550;7.208;2023-03-12T02:03:38;2.63;72.30
70830;SHT30;58451;51.550;7.208;2023-03-12T02:06:58;2.68;70.00
70830;SHT30;58451;51.550;7.208;2023-03-12T02:08:30;2.68;70.70
70830;SHT30;58451;51.550;7.208;2023-03-12T02:10:02;2.69;70.13
70830;SHT30;58451;51.550;7.208;2023-03-12T02:11:37;2.72;71.03
70830;SHT30;58451;51.550;7.208;2023-03-12T02:13:09;2.74;71.10
70830;SHT30;58451;51.550;7.208;2023-03-12T02:14:46;2.76;71.02
70830;SHT30;58451;51.550;7.208;2023-03-12T02:16:20;2.78;69.83
70830;SHT30;58451;51.550;7.208;2023-03-12T02:17:52;2.79;70.68
70830;SHT30;58451;51.550;7.208;2023-03-12T02:19:29;2.81;70.92
70830;SHT30;58451;51.550;7.208;2023-03-12T02:21:24;2.81;70.90
70830;SHT30;58451;51.550;7.208;2023-03-12T02:23:04;2.82;70.87
70830;SHT30;58451;51.550;7.208;2023-03-12T02:24:49;2.85;71.30
70830;SHT30;58451;51.550;7.208;2023-03-12T02:26:46;2.85;69.05
70830;SHT30;58451;51.550;7.208;2023-03-12T02:28:20;2.85;69.43
70830;SHT30;58451;51.550;7.208;2023-03-12T02:29:59;2.88;70.13
70830;SHT30;58451;51.550;7.208;2023-03-12T02:31:36;2.89;69.83
70830;SHT30;58451;51.550;7.208;2023-03-12T02:33:14;2.90;70.47
70830;SHT30;58451;51.550;7.208;2023-03-12T02:36:58;2.91;70.05
70830;SHT30;58451;51.550;7.208;2023-03-12T02:40:09;2.93;67.93
70830;SHT30;58451;51.550;7.208;2023-03-12T02:50:59;2.99;68.68
70830;SHT30;58451;51.550;7.208;2023-03-12T02:52:34;3.00;67.98
70830;SHT30;58451;51.550;7.208;2023-03-12T02:54:08;3.01;68.20
70830;SHT30;58451;51.550;7.208;2023-03-12T02:55:42;3.02;68.48
70830;SHT30;58451;51.550;7.208;2023-03-12T02:57:13;3.03;69.28
70830;SHT30;58451;51.550;7.208;2023-03-12T02:58:45;3.03;70.28
70830;SHT30;58451;51.550;7.208;2023-03-12T03:00:18;3.03;68.83
70830;SHT30;58451;51.550;7.208;2023-03-12T03:01:54;3.03;69.18
70830;SHT30;58451;51.550;7.208;2023-03-12T03:03:29;3.05;69.97
70830;SHT30;58451;51.550;7.208;2023-03-12T03:05:01;3.06;70.08
70830;SHT30;58451;51.550;7.208;2023-03-12T03:06:33;3.06;69.57
70830;SHT30;58451;51.550;7.208;2023-03-12T03:08:08;3.04;68.98
70830;SHT30;58451;51.550;7.208;2023-03-12T03:09:40;3.03;67.57
70830;SHT30;58451;51.550;7.208;2023-03-12T03:11:12;3.03;67.02
70830;SHT30;58451;51.550;7.208;2023-03-12T03:12:44;3.02;67.18
70830;SHT30;58451;51.550;7.208;2023-03-12T03:14:16;3.01;67.87
70830;SHT30;58451;51.550;7.208;2023-03-12T03:15:51;2.99;68.18
70830;SHT30;58451;51.550;7.208;2023-03-12T03:17:23;2.97;67.02
70830;SHT30;58451;51.550;7.208;2023-03-12T03:18:57;2.94;67.07
70830;SHT30;58451;51.550;7.208;2023-03-12T03:20:30;2.91;65.98
70830;SHT30;58451;51.550;7.208;2023-03-12T03:22:02;2.91;66.82
70830;SHT30;58451;51.550;7.208;2023-03-12T03:23:35;2.89;67.93
70830;SHT30;58451;51.550;7.208;2023-03-12T03:25:10;2.89;67.92
70830;SHT30;58451;51.550;7.208;2023-03-12T03:26:44;2.88;68.18
70830;SHT30;58451;51.550;7.208;2023-03-12T03:28:16;2.87;68.90
70830;SHT30;58451;51.550;7.208;2023-03-12T03:29:49;2.86;68.48
70830;SHT30;58451;51.550;7.208;2023-03-12T03:31:23;2.84;68.58
70830;SHT30;58451;51.550;7.208;2023-03-12T03:32:55;2.83;67.38
70830;SHT30;58451;51.550;7.208;2023-03-12T03:34:27;2.82;67.20
70830;SHT30;58451;51.550;7.208;2023-03-12T03:35:59;2.82;67.75
70830;SHT30;58451;51.550;7.208;2023-03-12T03:37:33;2.81;66.38
70830;SHT30;58451;51.550;7.208;2023-03-12T03:39:06;2.80;67.98
70830;SHT30;58451;51.550;7.208;2023-03-12T03:40:38;2.80;68.67
70830;SHT30;58451;51.550;7.208;2023-03-12T03:42:10;2.78;69.13
70830;SHT30;58451;51.550;7.208;2023-03-12T03:43:44;2.78;69.38
70830;SHT30;58451;51.550;7.208;2023-03-12T03:45:16;2.77;69.50
70830;SHT30;58451;51.550;7.208;2023-03-12T03:46:50;2.77;69.60
70830;SHT30;58451;51.550;7.208;2023-03-12T03:48:24;2.77;69.25
70830;SHT30;58451;51.550;7.208;2023-03-12T03:49:56;2.78;68.53
70830;SHT30;58451;51.550;7.208;2023-03-12T03:51:28;2.80;68.32
70830;SHT30;58451;51.550;7.208;2023-03-12T03:53:03;2.79;68.72
70830;SHT30;58451;51.550;7.208;2023-03-12T03:54:36;2.81;68.25
70830;SHT30;58451;51.550;7.208;2023-03-12T03:56:09;2.82;67.83
70830;SHT30;58451;51.550;7.208;2023-03-12T03:57:51;2.84;69.15
70830;SHT30;58451;51.550;7.208;2023-03-12T03:59:23;2.86;69.35
70830;SHT30;58451;51.550;7.208;2023-03-12T04:00:55;2.86;68.65
70830;SHT30;58451;51.550;7.208;2023-03-12T04:02:27;2.89;69.05
70830;SHT30;58451;51.550;7.208;2023-03-12T04:04:00;2.90;68.95
70830;SHT30;58451;51.550;7.208;2023-03-12T04:05:32;2.91;68.98
70830;SHT30;58451;51.550;7.208;2023-03-12T04:07:05;2.92;69.22
70830;SHT30;58451;51.550;7.208;2023-03-12T04:08:37;2.95;69.63
70830;SHT30;58451;51.550;7.208;2023-03-12T04:10:12;2.97;69.57
70830;SHT30;58451;51.550;7.208;2023-03-12T04:11:45;2.98;69.65
70830;SHT30;58451;51.550;7.208;2023-03-12T04:13:17;2.98;69.70
70830;SHT30;58451;51.550;7.208;2023-03-12T04:14:51;2.99;69.83
70830;SHT30;58451;51.550;7.208;2023-03-12T04:16:24;3.00;70.00
70830;SHT30;58451;51.550;7.208;2023-03-12T04:17:57;3.00;69.72
70830;SHT30;58451;51.550;7.208;2023-03-12T04:19:29;3.01;69.88
70830;SHT30;58451;51.550;7.208;2023-03-12T04:21:03;3.03;70.10
70830;SHT30;58451;51.550;7.208;2023-03-12T04:22:40;3.02;70.12
70830;SHT30;58451;51.550;7.208;2023-03-12T04:24:13;3.04;70.13
70830;SHT30;58451;51.550;7.208;2023-03-12T04:25:48;3.03;69.17
70830;SHT30;58451;51.550;7.208;2023-03-12T04:27:20;3.05;69.25
70830;SHT30;58451;51.550;7.208;2023-03-12T04:28:52;3.07;69.28
70830;SHT30;58451;51.550;7.208;2023-03-12T04:30:24;3.07;69.00
70830;SHT30;58451;51.550;7.208;2023-03-12T04:31:56;3.09;68.60
70830;SHT30;58451;51.550;7.208;2023-03-12T04:33:30;3.12;69.47
70830;SHT30;58451;51.550;7.208;2023-03-12T04:35:08;3.12;66.37
70830;SHT30;58451;51.550;7.208;2023-03-12T04:36:40;3.13;68.12
70830;SHT30;58451;51.550;7.208;2023-03-12T04:38:12;3.15;68.57
70830;SHT30;58451;51.550;7.208;2023-03-12T04:39:45;3.17;67.78
70830;SHT30;58451;51.550;7.208;2023-03-12T04:41:17;3.17;66.60
70830;SHT30;58451;51.550;7.208;2023-03-12T04:42:52;3.18;65.90
70830;SHT30;58451;51.550;7.208;2023-03-12T04:44:25;3.21;67.30
70830;SHT30;58451;51.550;7.208;2023-03-12T04:45:59;3.22;68.22
70830;SHT30;58451;51.550;7.208;2023-03-12T04:47:32;3.23;67.22
70830;SHT30;58451;51.550;7.208;2023-03-12T04:49:04;3.23;65.70
70830;SHT30;58451;51.550;7.208;2023-03-12T04:50:37;3.25;67.37
70830;SHT30;58451;51.550;7.208;2023-03-12T04:52:10;3.26;67.87
70830;SHT30;58451;51.550;7.208;2023-03-12T04:53:42;3.28;68.07
70830;SHT30;58451;51.550;7.208;2023-03-12T04:55:14;3.30;68.42
70830;SHT30;58451;51.550;7.208;2023-03-12T04:56:47;3.31;68.53
70830;SHT30;58451;51.550;7.208;2023-03-12T04:58:20;3.34;67.83
70830;SHT30;58451;51.550;7.208;2023-03-12T04:59:53;3.36;68.25
70830;SHT30;58451;51.550;7.208;2023-03-12T05:01:26;3.38;67.52
70830;SHT30;58451;51.550;7.208;2023-03-12T05:03:06;3.39;67.52
70830;SHT30;58451;51.550;7.208;2023-03-12T05:04:41;3.40;68.03
70830;SHT30;58451;51.550;7.208;2023-03-12T05:06:13;3.44;68.35
70830;SHT30;58451;51.550;7.208;2023-03-12T05:07:45;3.45;66.38
70830;SHT30;58451;51.550;7.208;2023-03-12T05:09:18;3.48;67.10
70830;SHT30;58451;51.550;7.208;2023-03-12T05:10:50;3.49;65.70
70830;SHT30;58451;51.550;7.208;2023-03-12T05:12:22;3.49;65.68
70830;SHT30;58451;51.550;7.208;2023-03-12T05:13:54;3.51;66.55
70830;SHT30;58451;51.550;7.208;2023-03-12T05:15:27;3.52;67.08
70830;SHT30;58451;51.550;7.208;2023-03-12T05:17:00;3.53;66.32
70830;SHT30;58451;51.550;7.208;2023-03-12T05:18:32;3.55;66.62
70830;SHT30;58451;51.550;7.208;2023-03-12T05:20:06;3.56;66.68
70830;SHT30;58451;51.550;7.208;2023-03-12T05:21:39;3.57;66.18
70830;SHT30;58451;51.550;7.208;2023-03-12T05:23:12;3.59;66.42
70830;SHT30;58451;51.550;7.208;2023-03-12T05:24:44;3.62;67.03
70830;SHT30;58451;51.550;7.208;2023-03-12T05:26:17;3.64;66.73
70830;SHT30;58451;51.550;7.208;2023-03-12T05:28:18;3.65;64.85
70830;SHT30;58451;51.550;7.208;2023-03-12T05:29:51;3.65;63.57
70830;SHT30;58451;51.550;7.208;2023-03-12T05:31:26;3.67;65.38
70830;SHT30;58451;51.550;7.208;2023-03-12T05:33:03;3.68;65.70
70830;SHT30;58451;51.550;7.208;2023-03-12T05:34:35;3.68;65.42
70830;SHT30;58451;51.550;7.208;2023-03-12T05:36:07;3.70;65.88
70830;SHT30;58451;51.550;7.208;2023-03-12T05:37:42;3.71;65.67
70830;SHT30;58451;51.550;7.208;2023-03-12T05:39:15;3.72;66.68
70830;SHT30;58451;51.550;7.208;2023-03-12T05:40:50;3.76;66.38
70830;SHT30;58451;51.550;7.208;2023-03-12T05:42:28;3.75;64.43
70830;SHT30;58451;51.550;7.208;2023-03-12T05:44:01;3.77;64.95
70830;SHT30;58451;51.550;7.208;2023-03-12T05:45:33;3.79;65.68
70830;SHT30;58451;51.550;7.208;2023-03-12T05:47:06;3.79;62.90
70830;SHT30;58451;51.550;7.208;2023-03-12T05:48:39;3.81;62.80
70830;SHT30;58451;51.550;7.208;2023-03-12T05:50:11;3.84;64.95
70830;SHT30;58451;51.550;7.208;2023-03-12T05:51:43;3.86;65.78
70830;SHT30;58451;51.550;7.208;2023-03-12T05:53:17;3.88;66.12
70830;SHT30;58451;51.550;7.208;2023-03-12T05:54:51;3.90;66.30
70830;SHT30;58451;51.550;7.208;2023-03-12T05:56:24;3.90;65.78
70830;SHT30;58451;51.550;7.208;2023-03-12T05:57:56;3.90;63.12
70830;SHT30;58451;51.550;7.208;2023-03-12T05:59:28;3.92;63.10
70830;SHT30;58451;51.550;7.208;2023-03-12T06:01:01;3.91;61.82
70830;SHT30;58451;51.550;7.208;2023-03-12T06:02:35;3.92;62.87
70830;SHT30;58451;51.550;7.208;2023-03-12T06:04:08;3.93;63.52
70830;SHT30;58451;51.550;7.208;2023-03-12T06:05:40;3.97;64.22
70830;SHT30;58451;51.550;7.208;2023-03-12T06:07:12;3.97;64.32
70830;SHT30;58451;51.550;7.208;2023-03-12T06:08:43;3.98;63.60
70830;SHT30;58451;51.550;7.208;2023-03-12T06:10:18;3.99;63.58
70830;SHT30;58451;51.550;7.208;2023-03-12T06:11:50;4.01;65.32
70830;SHT30;58451;51.550;7.208;2023-03-12T06:13:22;4.01;65.07
70830;SHT30;58451;51.550;7.208;2023-03-12T06:14:56;4.01;65.75
70830;SHT30;58451;51.550;7.208;2023-03-12T06:16:29;4.03;65.35
70830;SHT30;58451;51.550;7.208;2023-03-12T06:18:01;4.05;65.28
70830;SHT30;58451;51.550;7.208;2023-03-12T06:19:33;4.06;64.47
70830;SHT30;58451;51.550;7.208;2023-03-12T06:21:12;4.05;64.95
70830;SHT30;58451;51.550;7.208;2023-03-12T06:22:49;4.07;65.75
70830;SHT30;58451;51.550;7.208;2023-03-12T06:24:21;4.07;63.52
70830;SHT30;58451;51.550;7.208;2023-03-12T06:26:01;4.09;65.02
70830;SHT30;58451;51.550;7.208;2023-03-12T06:27:33;4.10;65.12
70830;SHT30;58451;51.550;7.208;2023-03-12T06:29:05;4.11;64.60
70830;SHT30;58451;51.550;7.208;2023-03-12T06:30:37;4.13;64.67
70830;SHT30;58451;51.550;7.208;2023-03-12T06:32:09;4.17;65.60
70830;SHT30;58451;51.550;7.208;2023-03-12T06:33:42;4.20;65.80
70830;SHT30;58451;51.550;7.208;2023-03-12T06:35:16;4.22;64.90
70830;SHT30;58451;51.550;7.208;2023-03-12T06:36:48;4.26;65.48
70830;SHT30;58451;51.550;7.208;2023-03-12T06:38:20;4.30;65.80
70830;SHT30;58451;51.550;7.208;2023-03-12T06:39:52;4.35;65.40
70830;SHT30;58451;51.550;7.208;2023-03-12T06:41:25;4.40;65.80
70830;SHT30;58451;51.550;7.208;2023-03-12T06:42:58;4.43;65.93
70830;SHT30;58451;51.550;7.208;2023-03-12T06:44:36;4.44;65.02
70830;SHT30;58451;51.550;7.208;2023-03-12T06:46:14;4.44;65.25
70830;SHT30;58451;51.550;7.208;2023-03-12T06:47:49;4.43;65.08
70830;SHT30;58451;51.550;7.208;2023-03-12T06:49:21;4.43;65.52
70830;SHT30;58451;51.550;7.208;2023-03-12T06:50:54;4.46;66.00
70830;SHT30;58451;51.550;7.208;2023-03-12T06:52:26;4.49;65.63
70830;SHT30;58451;51.550;7.208;2023-03-12T06:53:58;4.51;66.53
70830;SHT30;58451;51.550;7.208;2023-03-12T06:55:32;4.54;66.65
70830;SHT30;58451;51.550;7.208;2023-03-12T06:57:04;4.56;66.42
70830;SHT30;58451;51.550;7.208;2023-03-12T06:58:36;4.54;66.30
70830;SHT30;58451;51.550;7.208;2023-03-12T07:00:09;4.56;66.47
70830;SHT30;58451;51.550;7.208;2023-03-12T07:01:42;4.57;66.53
70830;SHT30;58451;51.550;7.208;2023-03-12T07:03:14;4.55;66.82
70830;SHT30;58451;51.550;7.208;2023-03-12T07:04:46;4.54;66.42
70830;SHT30;58451;51.550;7.208;2023-03-12T07:06:19;4.54;66.37
70830;SHT30;58451;51.550;7.208;2023-03-12T07:07:52;4.55;66.47
70830;SHT30;58451;51.550;7.208;2023-03-12T07:09:24;4.50;64.33
70830;SHT30;58451;51.550;7.208;2023-03-12T07:10:56;4.47;65.25
70830;SHT30;58451;51.550;7.208;2023-03-12T07:12:33;4.44;64.67
70830;SHT30;58451;51.550;7.208;2023-03-12T07:14:05;4.43;65.15
70830;SHT30;58451;51.550;7.208;2023-03-12T07:15:37;4.44;65.80
70830;SHT30;58451;51.550;7.208;2023-03-12T07:17:09;4.47;66.08
70830;SHT30;58451;51.550;7.208;2023-03-12T07:18:41;4.48;66.20
70830;SHT30;58451;51.550;7.208;2023-03-12T07:20:13;4.50;66.52
70830;SHT30;58451;51.550;7.208;2023-03-12T07:21:45;4.52;66.45
70830;SHT30;58451;51.550;7.208;2023-03-12T07:23:17;4.54;66.80
70830;SHT30;58451;51.550;7.208;2023-03-12T07:24:49;4.53;66.23
70830;SHT30;58451;51.550;7.208;2023-03-12T07:26:22;4.56;67.27
70830;SHT30;58451;51.550;7.208;2023-03-12T07:27:54;4.55;67.65
70830;SHT30;58451;51.550;7.208;2023-03-12T07:29:27;4.53;67.03
70830;SHT30;58451;51.550;7.208;2023-03-12T07:31:00;4.53;67.58
70830;SHT30;58451;51.550;7.208;2023-03-12T07:32:36;4.53;67.35
70830;SHT30;58451;51.550;7.208;2023-03-12T07:34:08;4.53;67.57
70830;SHT30;58451;51.550;7.208;2023-03-12T07:35:41;4.54;67.48
70830;SHT30;58451;51.550;7.208;2023-03-12T07:37:13;4.55;67.47
70830;SHT30;58451;51.550;7.208;2023-03-12T07:38:45;4.58;68.12
70830;SHT30;58451;51.550;7.208;2023-03-12T07:40:16;4.60;67.57
70830;SHT30;58451;51.550;7.208;2023-03-12T07:41:48;4.63;68.33
70830;SHT30;58451;51.550;7.208;2023-03-12T07:43:21;4.66;68.50
70830;SHT30;58451;51.550;7.208;2023-03-12T07:44:56;4.70;68.82
70830;SHT30;58451;51.550;7.208;2023-03-12T07:46:28;4.72;69.12
70830;SHT30;58451;51.550;7.208;2023-03-12T07:48:00;4.74;68.67
70830;SHT30;58451;51.550;7.208;2023-03-12T07:49:33;4.75;68.98
70830;SHT30;58451;51.550;7.208;2023-03-12T07:51:05;4.76;68.87
70830;SHT30;58451;51.550;7.208;2023-03-12T07:52:38;4.74;68.80
70830;SHT30;58451;51.550;7.208;2023-03-12T07:54:10;4.76;69.22
70830;SHT30;58451;51.550;7.208;2023-03-12T07:55:42;4.80;69.68
70830;SHT30;58451;51.550;7.208;2023-03-12T07:57:17;4.84;69.32
70830;SHT30;58451;51.550;7.208;2023-03-12T07:58:49;4.84;69.55
70830;SHT30;58451;51.550;7.208;2023-03-12T08:00:22;4.90;69.75
70830;SHT30;58451;51.550;7.208;2023-03-12T08:01:55;4.93;69.97
70830;SHT30;58451;51.550;7.208;2023-03-12T08:03:27;4.93;70.18
70830;SHT30;58451;51.550;7.208;2023-03-12T08:05:01;4.92;70.38
70830;SHT30;58451;51.550;7.208;2023-03-12T08:06:34;4.91;70.53
70830;SHT30;58451;51.550;7.208;2023-03-12T08:08:06;4.89;70.68
70830;SHT30;58451;51.550;7.208;2023-03-12T08:09:38;4.89;70.95
70830;SHT30;58451;51.550;7.208;2023-03-12T08:11:10;4.89;70.87
70830;SHT30;58451;51.550;7.208;2023-03-12T08:12:42;4.95;70.97
70830;SHT30;58451;51.550;7.208;2023-03-12T08:14:14;5.01;71.15
70830;SHT30;58451;51.550;7.208;2023-03-12T08:15:46;5.09;71.18
70830;SHT30;58451;51.550;7.208;2023-03-12T08:17:23;5.16;71.22
70830;SHT30;58451;51.550;7.208;2023-03-12T08:18:55;5.24;71.23
70830;SHT30;58451;51.550;7.208;2023-03-12T08:20:28;5.30;71.23
70830;SHT30;58451;51.550;7.208;2023-03-12T08:22:01;5.38;71.30
70830;SHT30;58451;51.550;7.208;2023-03-12T08:23:33;5.47;71.43
70830;SHT30;58451;51.550;7.208;2023-03-12T08:25:06;5.54;71.45
70830;SHT30;58451;51.550;7.208;2023-03-12T08:26:40;5.59;71.47
70830;SHT30;58451;51.550;7.208;2023-03-12T08:28:12;5.61;71.50
70830;SHT30;58451;51.550;7.208;2023-03-12T08:29:44;5.63;71.55
70830;SHT30;58451;51.550;7.208;2023-03-12T08:31:16;5.68;71.65
70830;SHT30;58451;51.550;7.208;2023-03-12T08:32:49;5.68;71.78
70830;SHT30;58451;51.550;7.208;2023-03-12T08:34:22;5.68;71.85
70830;SHT30;58451;51.550;7.208;2023-03-12T08:35:54;5.68;71.73
70830;SHT30;58451;51.550;7.208;2023-03-12T08:37:26;5.70;71.70
70830;SHT30;58451;51.550;7.208;2023-03-12T08:38:58;5.72;71.80
70830;SHT30;58451;51.550;7.208;2023-03-12T08:40:30;5.76;71.78
70830;SHT30;58451;51.550;7.208;2023-03-12T08:42:02;5.74;71.83
70830;SHT30;58451;51.550;7.208;2023-03-12T08:43:34;5.77;71.80
70830;SHT30;58451;51.550;7.208;2023-03-12T08:45:08;5.83;71.77
70830;SHT30;58451;51.550;7.208;2023-03-12T08:46:41;5.84;71.73
70830;SHT30;58451;51.550;7.208;2023-03-12T08:48:13;5.86;71.92
70830;SHT30;58451;51.550;7.208;2023-03-12T08:49:45;5.85;71.83
70830;SHT30;58451;51.550;7.208;2023-03-12T08:51:17;5.89;72.08
70830;SHT30;58451;51.550;7.208;2023-03-12T08:52:49;5.94;72.10
70830;SHT30;58451;51.550;7.208;2023-03-12T08:54:23;5.96;72.10
70830;SHT30;58451;51.550;7.208;2023-03-12T08:55:58;5.96;71.97
70830;SHT30;58451;51.550;7.208;2023-03-12T08:57:30;5.95;71.98
70830;SHT30;58451;51.550;7.208;2023-03-12T08:59:02;5.96;72.12
70830;SHT30;58451;51.550;7.208;2023-03-12T09:00:34;5.98;72.08
70830;SHT30;58451;51.550;7.208;2023-03-12T09:02:09;6.02;72.12
70830;SHT30;58451;51.550;7.208;2023-03-12T09:03:43;6.05;71.90
70830;SHT30;58451;51.550;7.208;2023-03-12T09:05:16;6.11;71.70
70830;SHT30;58451;51.550;7.208;2023-03-12T09:06:48;6.17;71.92
70830;SHT30;58451;51.550;7.208;2023-03-12T09:08:21;6.22;71.83
70830;SHT30;58451;51.550;7.208;2023-03-12T09:09:53;6.24;71.97
70830;SHT30;58451;51.550;7.208;2023-03-12T09:11:26;6.28;72.02
70830;SHT30;58451;51.550;7.208;2023-03-12T09:12:57;6.32;72.18
70830;SHT30;58451;51.550;7.208;2023-03-12T09:14:31;6.38;72.13
70830;SHT30;58451;51.550;7.208;2023-03-12T09:16:24;6.49;72.30
70830;SHT30;58451;51.550;7.208;2023-03-12T09:17:56;6.56;72.28
70830;SHT30;58451;51.550;7.208;2023-03-12T09:19:28;6.62;72.33
70830;SHT30;58451;51.550;7.208;2023-03-12T09:21:00;6.64;72.28
70830;SHT30;58451;51.550;7.208;2023-03-12T09:22:33;6.64;72.50
70830;SHT30;58451;51.550;7.208;2023-03-12T09:24:07;6.63;72.53
70830;SHT30;58451;51.550;7.208;2023-03-12T09:25:45;6.66;72.72
70830;SHT30;58451;51.550;7.208;2023-03-12T09:27:18;6.71;72.70
70830;SHT30;58451;51.550;7.208;2023-03-12T09:28:52;6.75;72.85
70830;SHT30;58451;51.550;7.208;2023-03-12T09:30:24;6.77;72.82
70830;SHT30;58451;51.550;7.208;2023-03-12T09:31:57;6.78;72.55
70830;SHT30;58451;51.550;7.208;2023-03-12T09:33:30;6.78;72.65
70830;SHT30;58451;51.550;7.208;2023-03-12T09:35:04;6.80;72.83
70830;SHT30;58451;51.550;7.208;2023-03-12T09:36:39;6.75;72.78
70830;SHT30;58451;51.550;7.208;2023-03-12T09:38:11;6.79;73.02
70830;SHT30;58451;51.550;7.208;2023-03-12T09:39:47;6.80;73.12
70830;SHT30;58451;51.550;7.208;2023-03-12T09:41:24;6.80;73.20
70830;SHT30;58451;51.550;7.208;2023-03-12T09:45:26;6.67;73.87
70830;SHT30;58451;51.550;7.208;2023-03-12T09:47:10;6.67;73.85
70830;SHT30;58451;51.550;7.208;2023-03-12T09:49:04;6.67;74.00
70830;SHT30;58451;51.550;7.208;2023-03-12T09:50:49;6.67;74.43
70830;SHT30;58451;51.550;7.208;2023-03-12T09:52:27;6.65;74.52
70830;SHT30;58451;51.550;7.208;2023-03-12T09:54:17;6.58;75.10
70830;SHT30;58451;51.550;7.208;2023-03-12T09:56:03;6.53;75.12
70830;SHT30;58451;51.550;7.208;2023-03-12T09:57:39;6.48;75.48
70830;SHT30;58451;51.550;7.208;2023-03-12T09:59:12;6.46;75.65
70830;SHT30;58451;51.550;7.208;2023-03-12T10:00:43;6.44;75.75
70830;SHT30;58451;51.550;7.208;2023-03-12T10:06:35;6.42;76.05
70830;SHT30;58451;51.550;7.208;2023-03-12T10:14:44;6.53;76.95
70830;SHT30;58451;51.550;7.208;2023-03-12T10:18:19;6.56;76.68
70830;SHT30;58451;51.550;7.208;2023-03-12T10:28:18;6.77;78.23
70830;SHT30;58451;51.550;7.208;2023-03-12T10:29:58;6.80;77.98
70830;SHT30;58451;51.550;7.208;2023-03-12T10:31:36;6.84;78.07
70830;SHT30;58451;51.550;7.208;2023-03-12T10:33:18;6.89;78.17
70830;SHT30;58451;51.550;7.208;2023-03-12T10:34:59;6.93;78.10
70830;SHT30;58451;51.550;7.208;2023-03-12T10:36:43;6.97;78.38
70830;SHT30;58451;51.550;7.208;2023-03-12T10:38:26;6.93;78.88
70830;SHT30;58451;51.550;7.208;2023-03-12T10:40:03;6.95;78.87
70830;SHT30;58451;51.550;7.208;2023-03-12T10:41:40;6.96;79.30
70830;SHT30;58451;51.550;7.208;2023-03-12T10:43:15;6.99;79.00
70830;SHT30;58451;51.550;7.208;2023-03-12T10:44:48;7.00;78.70